• Join FlightAware (Why Join?)
  • Login
  • US Flag 
05:08PM EDT


 

Airport Tracker/Info


-or-


 

Live Flight TrackerFlight Track Log ✈ KAP444 ✈ 28-Apr-2013 ✈ KHPN - KMVY

Flight Track Log - Related Links

Times and Time Zones

All times are in EDT time to prevent confusion due to time zone crossing. See the KAP444 flight status page for this flight to view local times or setup timezone preferences in your user account.

Time Position Orientation Groundspeed Altitude Reporting Facility
EDT Latitude Longitude Course Direction KTS MPH feet Rate Location/Type
06:39PM 41.0500 -73.6667 90° East 118 136 2,200  Level New York TRACON
06:40PM 41.0500 -73.6167 90° East 135 155 3,100 900 Climbing New York TRACON
06:41PM 41.0500 -73.5667 90° East 135 155 4,000 900 Climbing New York TRACON
06:42PM 41.0667 -73.5167 66° East 137 158 4,900 720 Climbing New York TRACON
06:43PM 41.0667 -73.4667 90° East 142 163 5,500 300 Climbing New York TRACON
06:44PM 41.0667 -73.4000 90° East 177 204 5,500  Level New York TRACON
06:45PM 41.0833 -73.3333 72° East 183 211 5,500  Level New York TRACON
06:46PM 41.0833 -73.2833 90° East 182 209 5,500  Level New York TRACON
06:47PM 41.1000 -73.2167 72° East 182 209 5,500  Level New York TRACON
06:48PM 41.1000 -73.1500 90° East 181 208 5,500  Level New York TRACON
06:49PM 41.1167 -73.0833 72° East 183 211 5,500  Level New York TRACON
06:50PM 41.1167 -73.0167 90° East 183 211 5,500  Level New York TRACON
06:51PM 41.1333 -72.9500 72° East 183 211 5,500  Level New York TRACON
06:52PM 41.1333 -72.8833 90° East 181 208 5,500  Level New York TRACON
06:53PM 41.1333 -72.8167 90° East 179 206 5,500  Level New York TRACON
06:54PM 41.1500 -72.7500 72° East 178 205 5,500  Level New York TRACON
06:55PM 41.1500 -72.6833 90° East 180 207 5,500  Level New York TRACON
06:56PM 41.1667 -72.6167 72° East 181 208 5,500  Level New York TRACON
06:57PM 41.1833 -72.5500 72° East 181 208 5,500  Level New York TRACON
06:58PM 41.1833 -72.4833 90° East 184 212 5,500  Level New York TRACON
06:59PM 41.2000 -72.4167 72° East 182 209 5,500  Level New York TRACON
07:00PM 41.2000 -72.3667 90° East 185 213 5,500  Level New York TRACON
07:01PM 41.2000 -72.3000 90° East 184 212 5,500  Level New York TRACON
07:01PM 41.2081 -72.2636 74° East 187 215 5,500  Level Boston Center
07:02PM 41.2122 -72.1972 85° East 184 212 5,500  Level Boston Center
07:03PM 41.2225 -72.1228 80° East 180 207 5,500  Level Boston Center
07:04PM 41.2264 -72.0647 85° East 181 208 5,500  Level Boston Center
07:05PM 41.2283 -72.0094 87° East 185 213 5,500  Level Boston Center
07:06PM 41.2322 -71.9406 86° East 183 211 5,500  Level Boston Center
07:07PM 41.2381 -71.8686 84° East 182 209 5,500  Level Boston Center
07:08PM 41.2522 -71.7994 75° East 181 208 5,500  Level Boston Center
07:09PM 41.2625 -71.7331 78° East 181 208 5,500  Level Boston Center
07:10PM 41.2725 -71.6694 78° East 182 209 5,500  Level Boston Center
07:11PM 41.2761 -71.6033 86° East 182 209 5,500  Level Boston Center
07:12PM 41.2839 -71.5369 81° East 182 209 5,500  Level Boston Center
07:13PM 41.2897 -71.4758 83° East 182 209 5,500  Level Boston Center
07:14PM 41.2994 -71.4067 79° East 184 212 5,500  Level Boston Center
07:15PM 41.3072 -71.3486 80° East 188 216 5,500 -60 Level Boston Center
07:16PM 41.3169 -71.2875 78° East 179 206 5,400 -120 Descending Boston Center
07:18PM 41.3310 -71.1980 78° East  Level FlightAware Approximate
07:25PM 41.3737 -70.7842 79° East  Level FlightAware Approximate
07:26PM 41.3821 -70.7255 79° East  Level FlightAware Approximate
07:27PM 41.3834 -70.6660 90° East  Level FlightAware Approximate
07:28PM 41.3833 -70.6063 90° East  Level FlightAware Approximate
07:29PM 41.3833 -70.6000 90° East  Level FlightAware Approximate
07:30PM 41.3934 -70.6139 90° East  Level Estimated
07:31PM 41.3934 -70.6139 90° East  Level Estimated
07:32PM 41.3934 -70.6139 90° East  Level Estimated
07:33PM 41.3934 -70.6139 90° East  Level Estimated
07:34PM 41.3934 -70.6139 90° East  Level Estimated
07:35PM 41.3934 -70.6139 90° East  Level Estimated
07:36PM 41.3934 -70.6139 90° East  Level Estimated
07:37PM 41.3934 -70.6139 90° East  Level Estimated
07:38PM 41.3934 -70.6139 90° East  Level Estimated
07:39PM 41.3934 -70.6139 90° East  Level Estimated
07:40PM 41.3934 -70.6139 90° East  Level Estimated
07:41PM 41.3934 -70.6139 90° East  Level Estimated
07:42PM 41.3934 -70.6139 90° East  Level Estimated
07:43PM 41.3934 -70.6139 90° East  Level Estimated
07:44PM 41.3934 -70.6139 90° East  Level Estimated
07:45PM 41.3934 -70.6139 90° East  Level Estimated
07:46PM 41.3934 -70.6139 90° East  Level Estimated
07:47PM 41.3934 -70.6139 90° East  Level Estimated